Waco's Hourly Summary for Wednesday, March 8, 2017
Hour Temp
(f)
RH
(%)
Solar Rad.
(MJ/m2)
Rainfall
(in)
Wind
(mph)
3/8/2017 12:00 AM 0 0 0 0 0
3/8/2017 1:00 AM 54 37 0 0 1.29
3/8/2017 2:00 AM 54 45 0 0 0
3/8/2017 3:00 AM 53 47 0 0 0.01
3/8/2017 4:00 AM 53 52 0 0 0.28
3/8/2017 5:00 AM 54 51 0 0 0.8
3/8/2017 6:00 AM 54 51 0 0 0.32
3/8/2017 7:00 AM 54 52 0 0 0.69
3/8/2017 8:00 AM 55 54 0.17 0 2.54
3/8/2017 9:00 AM 57 53 0.33 0 4.02
3/8/2017 10:00 AM 58 48 0.4 0 5.24
3/8/2017 11:00 AM 62 40 1.28 0 5.75
3/8/2017 12:00 PM 66 29 1.86 0 7.02
3/8/2017 1:00 PM 69 29 1.59 0 5.89
3/8/2017 2:00 PM 70 33 1.83 0 4.15
3/8/2017 3:00 PM 73 35 2.14 0 5.17
3/8/2017 4:00 PM 74 38 1.12 0 5.01
3/8/2017 5:00 PM 74 41 0.75 0 5.25
3/8/2017 6:00 PM 72 42 0.45 0 5.93
3/8/2017 7:00 PM 69 44 0.04 0 4.09
3/8/2017 8:00 PM 68 51 0 0 4.11
3/8/2017 9:00 PM 67 55 0 0 3.43
3/8/2017 10:00 PM 66 60 0 0 3.26
3/8/2017 11:00 PM 65 65 0 0 4.38
Data Summary 60 43 11.96 0.00 3.28